2G4

Garrett County Airport

Oakland, Maryland, USA
METAR K2G4 210920Z AUTO 08003KT 10SM CLR M01/M07 A3037 RMK AO1
Observed Flight Rules
Apr-21 @ 09:20 UTC (26 minutes ago) Visual Flight Rules
Wind Visibility Clouds
80° at 3 knots 10 miles
  • Clear skies
Temperatures Readings
Current -1°C / 30°F
Dewpoint -7°C / 19°F
Humidity 64%
Altimeter 30.37" Hg
Pressure 1028 hPa
Elevation 894
METAR K2G4 210920Z AUTO 08003KT 10SM CLR M01/M07 A3037 RMK AO1
Observed Flight Rules
Apr-21 @ 09:20 UTC
(26 minutes ago)
VFR
Wind Visibility
80° at 3 knots 10 miles
Clouds
  • Clear skies
Temperature Dewpoint
-1°C / 30°F -7°C / 19°F
Humidity Altimeter Pressure
64% 30.37" Hg 1028 hPa